sensor_id;sensor_type;location;lat;lon;timestamp;P1;durP1;ratioP1;P2;durP2;ratioP2
59008;SDS011;44794;42.652;23.318;2022-10-28T00:02:04;12.40;;;5.85;;
59008;SDS011;44794;42.652;23.318;2022-10-28T00:07:16;12.93;;;6.32;;
59008;SDS011;44794;42.652;23.318;2022-10-28T00:09:42;12.75;;;6.30;;
59008;SDS011;44794;42.652;23.318;2022-10-28T00:35:48;9.00;;;5.20;;
59008;SDS011;44794;42.652;23.318;2022-10-28T00:38:14;11.63;;;5.55;;
59008;SDS011;44794;42.652;23.318;2022-10-28T00:40:39;9.68;;;5.57;;
59008;SDS011;44794;42.652;23.318;2022-10-28T00:43:05;13.52;;;6.35;;
59008;SDS011;44794;42.652;23.318;2022-10-28T00:45:45;9.75;;;5.97;;
59008;SDS011;44794;42.652;23.318;2022-10-28T00:48:11;11.00;;;5.82;;
59008;SDS011;44794;42.652;23.318;2022-10-28T00:53:30;14.23;;;6.72;;
59008;SDS011;44794;42.652;23.318;2022-10-28T00:55:56;11.27;;;7.00;;
59008;SDS011;44794;42.652;23.318;2022-10-28T00:58:25;8.95;;;6.05;;
59008;SDS011;44794;42.652;23.318;2022-10-28T01:00:51;13.52;;;7.85;;
59008;SDS011;44794;42.652;23.318;2022-10-28T01:03:17;11.88;;;6.65;;
59008;SDS011;44794;42.652;23.318;2022-10-28T01:05:43;12.35;;;6.43;;
59008;SDS011;44794;42.652;23.318;2022-10-28T01:08:11;8.93;;;5.88;;
59008;SDS011;44794;42.652;23.318;2022-10-28T01:16:16;13.18;;;6.80;;
59008;SDS011;44794;42.652;23.318;2022-10-28T01:33:27;10.45;;;7.30;;
59008;SDS011;44794;42.652;23.318;2022-10-28T01:36:06;14.13;;;8.13;;
59008;SDS011;44794;42.652;23.318;2022-10-28T01:44:51;12.85;;;7.30;;
59008;SDS011;44794;42.652;23.318;2022-10-28T01:47:26;10.80;;;7.00;;
59008;SDS011;44794;42.652;23.318;2022-10-28T01:52:43;11.85;;;7.40;;
59008;SDS011;44794;42.652;23.318;2022-10-28T01:55:17;12.13;;;7.38;;
59008;SDS011;44794;42.652;23.318;2022-10-28T01:57:47;12.68;;;7.07;;
59008;SDS011;44794;42.652;23.318;2022-10-28T02:00:15;12.10;;;7.50;;
59008;SDS011;44794;42.652;23.318;2022-10-28T02:02:44;13.73;;;8.15;;
59008;SDS011;44794;42.652;23.318;2022-10-28T02:13:15;15.00;;;7.07;;
59008;SDS011;44794;42.652;23.318;2022-10-28T02:24:29;15.57;;;8.82;;
59008;SDS011;44794;42.652;23.318;2022-10-28T02:27:12;14.82;;;8.35;;
59008;SDS011;44794;42.652;23.318;2022-10-28T02:38:26;13.30;;;9.00;;
59008;SDS011;44794;42.652;23.318;2022-10-28T02:40:58;15.68;;;9.75;;
59008;SDS011;44794;42.652;23.318;2022-10-28T02:43:34;16.30;;;10.05;;
59008;SDS011;44794;42.652;23.318;2022-10-28T02:46:03;19.48;;;10.07;;
59008;SDS011;44794;42.652;23.318;2022-10-28T02:51:51;17.90;;;10.02;;
59008;SDS011;44794;42.652;23.318;2022-10-28T02:54:22;20.80;;;11.35;;
59008;SDS011;44794;42.652;23.318;2022-10-28T02:56:54;15.88;;;10.07;;
59008;SDS011;44794;42.652;23.318;2022-10-28T02:59:25;16.95;;;10.30;;
59008;SDS011;44794;42.652;23.318;2022-10-28T03:01:50;16.77;;;10.40;;
59008;SDS011;44794;42.652;23.318;2022-10-28T03:04:16;16.13;;;10.18;;
59008;SDS011;44794;42.652;23.318;2022-10-28T03:06:56;22.48;;;10.57;;
59008;SDS011;44794;42.652;23.318;2022-10-28T03:09:22;20.77;;;10.63;;
59008;SDS011;44794;42.652;23.318;2022-10-28T03:11:47;19.83;;;10.18;;
59008;SDS011;44794;42.652;23.318;2022-10-28T03:14:13;16.77;;;9.23;;
59008;SDS011;44794;42.652;23.318;2022-10-28T03:16:38;20.85;;;9.95;;
59008;SDS011;44794;42.652;23.318;2022-10-28T03:19:04;17.42;;;9.73;;
59008;SDS011;44794;42.652;23.318;2022-10-28T03:21:32;17.08;;;10.13;;
59008;SDS011;44794;42.652;23.318;2022-10-28T03:23:57;15.40;;;9.35;;
59008;SDS011;44794;42.652;23.318;2022-10-28T03:26:23;16.50;;;9.95;;
59008;SDS011;44794;42.652;23.318;2022-10-28T03:28:48;20.95;;;9.82;;
59008;SDS011;44794;42.652;23.318;2022-10-28T03:31:14;15.68;;;9.57;;
59008;SDS011;44794;42.652;23.318;2022-10-28T03:33:48;22.15;;;11.10;;
59008;SDS011;44794;42.652;23.318;2022-10-28T03:36:14;18.70;;;10.98;;
59008;SDS011;44794;42.652;23.318;2022-10-28T03:38:51;20.95;;;10.02;;
59008;SDS011;44794;42.652;23.318;2022-10-28T03:41:17;15.10;;;9.70;;
59008;SDS011;44794;42.652;23.318;2022-10-28T03:43:57;17.15;;;9.98;;
59008;SDS011;44794;42.652;23.318;2022-10-28T03:46:23;19.63;;;10.38;;
59008;SDS011;44794;42.652;23.318;2022-10-28T03:48:49;18.70;;;10.20;;
59008;SDS011;44794;42.652;23.318;2022-10-28T03:51:14;18.27;;;10.93;;
59008;SDS011;44794;42.652;23.318;2022-10-28T03:53:58;23.83;;;11.07;;
59008;SDS011;44794;42.652;23.318;2022-10-28T03:56:23;22.58;;;11.40;;
59008;SDS011;44794;42.652;23.318;2022-10-28T03:58:49;24.77;;;11.52;;
59008;SDS011;44794;42.652;23.318;2022-10-28T04:01:14;24.40;;;10.82;;
59008;SDS011;44794;42.652;23.318;2022-10-28T04:03:52;22.13;;;10.98;;
59008;SDS011;44794;42.652;23.318;2022-10-28T04:06:18;35.10;;;24.98;;
59008;SDS011;44794;42.652;23.318;2022-10-28T04:08:43;17.25;;;10.88;;
59008;SDS011;44794;42.652;23.318;2022-10-28T04:11:09;17.73;;;11.32;;
59008;SDS011;44794;42.652;23.318;2022-10-28T04:13:34;26.48;;;12.70;;
59008;SDS011;44794;42.652;23.318;2022-10-28T04:15:59;21.65;;;11.90;;
59008;SDS011;44794;42.652;23.318;2022-10-28T04:18:26;27.13;;;15.63;;
59008;SDS011;44794;42.652;23.318;2022-10-28T04:20:51;27.33;;;14.95;;
59008;SDS011;44794;42.652;23.318;2022-10-28T04:23:17;29.30;;;14.35;;
59008;SDS011;44794;42.652;23.318;2022-10-28T04:25:43;27.02;;;15.57;;
59008;SDS011;44794;42.652;23.318;2022-10-28T04:28:09;26.20;;;12.40;;
59008;SDS011;44794;42.652;23.318;2022-10-28T04:30:47;25.45;;;13.02;;
59008;SDS011;44794;42.652;23.318;2022-10-28T04:33:12;23.23;;;11.98;;
59008;SDS011;44794;42.652;23.318;2022-10-28T04:35:47;29.92;;;14.13;;
59008;SDS011;44794;42.652;23.318;2022-10-28T04:38:12;26.20;;;13.27;;
59008;SDS011;44794;42.652;23.318;2022-10-28T04:40:51;31.48;;;15.05;;
59008;SDS011;44794;42.652;23.318;2022-10-28T04:43:16;29.05;;;15.80;;
59008;SDS011;44794;42.652;23.318;2022-10-28T04:45:42;29.05;;;16.38;;
59008;SDS011;44794;42.652;23.318;2022-10-28T04:48:09;35.33;;;16.48;;
59008;SDS011;44794;42.652;23.318;2022-10-28T04:50:37;33.50;;;16.63;;
59008;SDS011;44794;42.652;23.318;2022-10-28T04:53:02;35.97;;;17.25;;
59008;SDS011;44794;42.652;23.318;2022-10-28T04:55:28;36.83;;;18.20;;
59008;SDS011;44794;42.652;23.318;2022-10-28T04:57:57;37.13;;;17.13;;
59008;SDS011;44794;42.652;23.318;2022-10-28T05:00:25;33.65;;;17.60;;
59008;SDS011;44794;42.652;23.318;2022-10-28T05:02:52;34.88;;;17.20;;
59008;SDS011;44794;42.652;23.318;2022-10-28T05:05:17;39.35;;;16.60;;
59008;SDS011;44794;42.652;23.318;2022-10-28T05:07:43;37.38;;;18.48;;
59008;SDS011;44794;42.652;23.318;2022-10-28T05:10:09;39.30;;;19.27;;
59008;SDS011;44794;42.652;23.318;2022-10-28T05:12:36;37.72;;;17.30;;
59008;SDS011;44794;42.652;23.318;2022-10-28T05:15:05;38.60;;;16.67;;
59008;SDS011;44794;42.652;23.318;2022-10-28T05:17:31;36.33;;;16.02;;
59008;SDS011;44794;42.652;23.318;2022-10-28T05:19:57;44.88;;;16.23;;
59008;SDS011;44794;42.652;23.318;2022-10-28T05:22:22;38.42;;;15.10;;
59008;SDS011;44794;42.652;23.318;2022-10-28T05:24:48;46.13;;;15.60;;
59008;SDS011;44794;42.652;23.318;2022-10-28T05:27:14;50.65;;;15.32;;
59008;SDS011;44794;42.652;23.318;2022-10-28T05:29:40;45.45;;;16.80;;
59008;SDS011;44794;42.652;23.318;2022-10-28T05:32:05;29.23;;;14.60;;
59008;SDS011;44794;42.652;23.318;2022-10-28T05:37:18;49.92;;;17.38;;
59008;SDS011;44794;42.652;23.318;2022-10-28T05:39:43;39.35;;;15.90;;
59008;SDS011;44794;42.652;23.318;2022-10-28T05:42:09;42.08;;;17.52;;
59008;SDS011;44794;42.652;23.318;2022-10-28T05:44:34;41.85;;;13.98;;
59008;SDS011;44794;42.652;23.318;2022-10-28T05:47:00;39.05;;;14.80;;
59008;SDS011;44794;42.652;23.318;2022-10-28T05:49:25;33.85;;;14.57;;
59008;SDS011;44794;42.652;23.318;2022-10-28T05:51:50;32.30;;;14.30;;
59008;SDS011;44794;42.652;23.318;2022-10-28T05:54:16;31.63;;;13.88;;
59008;SDS011;44794;42.652;23.318;2022-10-28T05:56:41;39.50;;;15.05;;
59008;SDS011;44794;42.652;23.318;2022-10-28T05:59:07;26.67;;;14.82;;
59008;SDS011;44794;42.652;23.318;2022-10-28T06:01:35;29.00;;;15.02;;
59008;SDS011;44794;42.652;23.318;2022-10-28T06:04:01;37.00;;;16.15;;
59008;SDS011;44794;42.652;23.318;2022-10-28T06:06:27;34.67;;;14.60;;
59008;SDS011;44794;42.652;23.318;2022-10-28T06:08:53;45.83;;;16.20;;
59008;SDS011;44794;42.652;23.318;2022-10-28T06:11:18;44.47;;;15.85;;
59008;SDS011;44794;42.652;23.318;2022-10-28T06:13:44;39.85;;;15.82;;
59008;SDS011;44794;42.652;23.318;2022-10-28T06:16:09;45.08;;;16.02;;
59008;SDS011;44794;42.652;23.318;2022-10-28T06:18:35;38.15;;;16.00;;
59008;SDS011;44794;42.652;23.318;2022-10-28T06:21:00;39.53;;;16.02;;
59008;SDS011;44794;42.652;23.318;2022-10-28T06:23:26;38.63;;;17.20;;
59008;SDS011;44794;42.652;23.318;2022-10-28T06:26:00;42.88;;;16.90;;
59008;SDS011;44794;42.652;23.318;2022-10-28T06:28:26;36.88;;;15.50;;
59008;SDS011;44794;42.652;23.318;2022-10-28T06:30:52;29.95;;;15.32;;
59008;SDS011;44794;42.652;23.318;2022-10-28T06:33:18;37.78;;;14.65;;
59008;SDS011;44794;42.652;23.318;2022-10-28T06:35:44;32.42;;;15.45;;
59008;SDS011;44794;42.652;23.318;2022-10-28T06:38:09;42.33;;;15.60;;
59008;SDS011;44794;42.652;23.318;2022-10-28T06:40:35;39.70;;;15.90;;
59008;SDS011;44794;42.652;23.318;2022-10-28T06:43:02;34.03;;;15.63;;
59008;SDS011;44794;42.652;23.318;2022-10-28T06:45:30;33.58;;;15.88;;
59008;SDS011;44794;42.652;23.318;2022-10-28T06:47:57;40.63;;;16.30;;
59008;SDS011;44794;42.652;23.318;2022-10-28T06:50:24;38.70;;;15.73;;
59008;SDS011;44794;42.652;23.318;2022-10-28T06:52:49;32.80;;;16.38;;
59008;SDS011;44794;42.652;23.318;2022-10-28T06:55:15;28.77;;;15.70;;
59008;SDS011;44794;42.652;23.318;2022-10-28T07:00:37;24.58;;;14.38;;
59008;SDS011;44794;42.652;23.318;2022-10-28T07:03:02;34.55;;;15.05;;
59008;SDS011;44794;42.652;23.318;2022-10-28T07:05:28;25.67;;;14.88;;
59008;SDS011;44794;42.652;23.318;2022-10-28T07:07:54;26.63;;;14.23;;
59008;SDS011;44794;42.652;23.318;2022-10-28T07:10:19;37.58;;;14.55;;
59008;SDS011;44794;42.652;23.318;2022-10-28T07:12:51;27.02;;;13.88;;
59008;SDS011;44794;42.652;23.318;2022-10-28T07:15:17;24.77;;;12.75;;
59008;SDS011;44794;42.652;23.318;2022-10-28T07:17:55;22.52;;;13.77;;
59008;SDS011;44794;42.652;23.318;2022-10-28T07:20:21;24.90;;;13.35;;
59008;SDS011;44794;42.652;23.318;2022-10-28T07:22:55;20.63;;;12.82;;
59008;SDS011;44794;42.652;23.318;2022-10-28T07:25:21;21.27;;;12.98;;
59008;SDS011;44794;42.652;23.318;2022-10-28T07:27:47;26.50;;;12.63;;
59008;SDS011;44794;42.652;23.318;2022-10-28T07:30:12;21.02;;;12.23;;
59008;SDS011;44794;42.652;23.318;2022-10-28T07:32:41;27.88;;;13.15;;
59008;SDS011;44794;42.652;23.318;2022-10-28T07:35:07;24.33;;;12.55;;
59008;SDS011;44794;42.652;23.318;2022-10-28T07:37:32;23.77;;;12.40;;
59008;SDS011;44794;42.652;23.318;2022-10-28T07:39:58;28.13;;;13.25;;
59008;SDS011;44794;42.652;23.318;2022-10-28T07:42:23;24.90;;;14.20;;
59008;SDS011;44794;42.652;23.318;2022-10-28T07:44:49;25.52;;;13.20;;
59008;SDS011;44794;42.652;23.318;2022-10-28T07:47:14;28.17;;;13.50;;
59008;SDS011;44794;42.652;23.318;2022-10-28T07:49:56;24.83;;;13.23;;
59008;SDS011;44794;42.652;23.318;2022-10-28T07:54:48;24.50;;;12.52;;
59008;SDS011;44794;42.652;23.318;2022-10-28T07:57:27;28.38;;;13.85;;
59008;SDS011;44794;42.652;23.318;2022-10-28T07:59:52;24.75;;;12.75;;
59008;SDS011;44794;42.652;23.318;2022-10-28T08:02:19;21.38;;;13.23;;
59008;SDS011;44794;42.652;23.318;2022-10-28T08:04:47;29.05;;;12.38;;
59008;SDS011;44794;42.652;23.318;2022-10-28T08:07:13;20.70;;;12.80;;
59008;SDS011;44794;42.652;23.318;2022-10-28T08:12:45;29.33;;;12.73;;
59008;SDS011;44794;42.652;23.318;2022-10-28T08:15:10;28.08;;;11.88;;
59008;SDS011;44794;42.652;23.318;2022-10-28T08:17:51;26.33;;;12.20;;
59008;SDS011;44794;42.652;23.318;2022-10-28T08:20:17;21.60;;;10.85;;
59008;SDS011;44794;42.652;23.318;2022-10-28T08:22:43;18.83;;;9.73;;
59008;SDS011;44794;42.652;23.318;2022-10-28T08:25:08;17.33;;;9.10;;
59008;SDS011;44794;42.652;23.318;2022-10-28T08:27:34;21.65;;;9.20;;
59008;SDS011;44794;42.652;23.318;2022-10-28T08:29:59;19.92;;;9.75;;
59008;SDS011;44794;42.652;23.318;2022-10-28T08:32:25;16.90;;;9.77;;
59008;SDS011;44794;42.652;23.318;2022-10-28T08:34:50;19.45;;;9.80;;
59008;SDS011;44794;42.652;23.318;2022-10-28T08:37:16;17.05;;;9.27;;
59008;SDS011;44794;42.652;23.318;2022-10-28T08:39:41;24.48;;;9.38;;
59008;SDS011;44794;42.652;23.318;2022-10-28T08:47:54;20.23;;;9.48;;
59008;SDS011;44794;42.652;23.318;2022-10-28T08:50:24;18.63;;;10.27;;
59008;SDS011;44794;42.652;23.318;2022-10-28T08:52:57;18.38;;;8.88;;
59008;SDS011;44794;42.652;23.318;2022-10-28T08:58:38;17.80;;;9.10;;
59008;SDS011;44794;42.652;23.318;2022-10-28T09:01:08;13.60;;;8.73;;
59008;SDS011;44794;42.652;23.318;2022-10-28T09:03:43;20.90;;;10.27;;
59008;SDS011;44794;42.652;23.318;2022-10-28T09:06:12;16.73;;;9.65;;
59008;SDS011;44794;42.652;23.318;2022-10-28T09:08:56;19.15;;;10.55;;
59008;SDS011;44794;42.652;23.318;2022-10-28T09:16:50;16.63;;;9.95;;
59008;SDS011;44794;42.652;23.318;2022-10-28T09:19:39;19.70;;;9.82;;
59008;SDS011;44794;42.652;23.318;2022-10-28T09:22:25;19.90;;;10.73;;
59008;SDS011;44794;42.652;23.318;2022-10-28T09:25:02;25.48;;;12.98;;
59008;SDS011;44794;42.652;23.318;2022-10-28T09:27:35;26.38;;;12.45;;
59008;SDS011;44794;42.652;23.318;2022-10-28T09:36:44;20.75;;;11.85;;
59008;SDS011;44794;42.652;23.318;2022-10-28T09:39:16;21.55;;;11.98;;
59008;SDS011;44794;42.652;23.318;2022-10-28T09:41:56;20.30;;;11.35;;
59008;SDS011;44794;42.652;23.318;2022-10-28T09:47:16;19.17;;;10.23;;
59008;SDS011;44794;42.652;23.318;2022-10-28T09:49:46;23.90;;;11.73;;
59008;SDS011;44794;42.652;23.318;2022-10-28T09:52:18;22.35;;;10.70;;
59008;SDS011;44794;42.652;23.318;2022-10-28T09:54:54;20.90;;;10.50;;
59008;SDS011;44794;42.652;23.318;2022-10-28T09:57:23;20.35;;;9.80;;
59008;SDS011;44794;42.652;23.318;2022-10-28T09:59:54;15.70;;;9.13;;
59008;SDS011;44794;42.652;23.318;2022-10-28T10:08:59;16.23;;;8.25;;
59008;SDS011;44794;42.652;23.318;2022-10-28T10:11:51;19.55;;;9.30;;
59008;SDS011;44794;42.652;23.318;2022-10-28T10:17:15;12.68;;;7.63;;
59008;SDS011;44794;42.652;23.318;2022-10-28T10:19:57;13.93;;;7.65;;
59008;SDS011;44794;42.652;23.318;2022-10-28T10:22:44;13.55;;;6.90;;
59008;SDS011;44794;42.652;23.318;2022-10-28T10:30:49;9.50;;;6.00;;
59008;SDS011;44794;42.652;23.318;2022-10-28T10:33:24;12.10;;;5.38;;
59008;SDS011;44794;42.652;23.318;2022-10-28T10:38:54;13.68;;;5.60;;
59008;SDS011;44794;42.652;23.318;2022-10-28T10:49:43;13.35;;;5.88;;
59008;SDS011;44794;42.652;23.318;2022-10-28T10:52:16;17.17;;;6.50;;
59008;SDS011;44794;42.652;23.318;2022-10-28T11:00:23;11.20;;;4.97;;
59008;SDS011;44794;42.652;23.318;2022-10-28T11:02:55;7.40;;;4.13;;
59008;SDS011;44794;42.652;23.318;2022-10-28T11:05:22;11.55;;;4.53;;
59008;SDS011;44794;42.652;23.318;2022-10-28T11:07:49;10.13;;;4.75;;
59008;SDS011;44794;42.652;23.318;2022-10-28T11:10:20;8.20;;;4.20;;
59008;SDS011;44794;42.652;23.318;2022-10-28T11:13:02;7.72;;;4.10;;
59008;SDS011;44794;42.652;23.318;2022-10-28T11:18:23;8.43;;;4.18;;
59008;SDS011;44794;42.652;23.318;2022-10-28T11:20:52;8.80;;;3.70;;
59008;SDS011;44794;42.652;23.318;2022-10-28T11:29:50;6.10;;;3.60;;
59008;SDS011;44794;42.652;23.318;2022-10-28T11:34:48;3.67;;;2.42;;
59008;SDS011;44794;42.652;23.318;2022-10-28T11:43:31;4.63;;;2.75;;
59008;SDS011;44794;42.652;23.318;2022-10-28T11:52:01;10.15;;;3.33;;
59008;SDS011;44794;42.652;23.318;2022-10-28T12:12:49;7.78;;;3.60;;
59008;SDS011;44794;42.652;23.318;2022-10-28T12:17:48;7.65;;;3.75;;
59008;SDS011;44794;42.652;23.318;2022-10-28T12:20:21;6.38;;;3.42;;
59008;SDS011;44794;42.652;23.318;2022-10-28T12:22:51;8.32;;;3.70;;
59008;SDS011;44794;42.652;23.318;2022-10-28T12:25:28;7.75;;;3.08;;
59008;SDS011;44794;42.652;23.318;2022-10-28T12:27:58;4.93;;;3.30;;
59008;SDS011;44794;42.652;23.318;2022-10-28T12:30:29;9.77;;;3.65;;
59008;SDS011;44794;42.652;23.318;2022-10-28T12:33:10;5.72;;;3.45;;
59008;SDS011;44794;42.652;23.318;2022-10-28T12:41:11;5.65;;;3.67;;
59008;SDS011;44794;42.652;23.318;2022-10-28T12:43:44;9.00;;;3.92;;
59008;SDS011;44794;42.652;23.318;2022-10-28T12:49:15;16.60;;;4.47;;
59008;SDS011;44794;42.652;23.318;2022-10-28T12:51:48;5.15;;;3.45;;
59008;SDS011;44794;42.652;23.318;2022-10-28T12:54:23;7.85;;;3.97;;
59008;SDS011;44794;42.652;23.318;2022-10-28T12:57:08;8.55;;;3.95;;
59008;SDS011;44794;42.652;23.318;2022-10-28T12:59:38;11.57;;;3.95;;
59008;SDS011;44794;42.652;23.318;2022-10-28T13:02:13;15.45;;;3.70;;
59008;SDS011;44794;42.652;23.318;2022-10-28T13:04:43;8.77;;;4.22;;
59008;SDS011;44794;42.652;23.318;2022-10-28T13:07:15;11.30;;;4.10;;
59008;SDS011;44794;42.652;23.318;2022-10-28T13:15:23;9.07;;;4.20;;
59008;SDS011;44794;42.652;23.318;2022-10-28T13:18:09;9.75;;;3.85;;
59008;SDS011;44794;42.652;23.318;2022-10-28T13:24:18;6.65;;;3.45;;
59008;SDS011;44794;42.652;23.318;2022-10-28T13:26:51;6.43;;;3.45;;
59008;SDS011;44794;42.652;23.318;2022-10-28T13:29:25;5.10;;;3.53;;
59008;SDS011;44794;42.652;23.318;2022-10-28T13:31:53;14.13;;;3.58;;
59008;SDS011;44794;42.652;23.318;2022-10-28T13:34:21;10.63;;;3.65;;
59008;SDS011;44794;42.652;23.318;2022-10-28T13:37:05;7.00;;;3.60;;
59008;SDS011;44794;42.652;23.318;2022-10-28T13:39:42;5.90;;;3.67;;
59008;SDS011;44794;42.652;23.318;2022-10-28T13:47:31;10.23;;;3.78;;
59008;SDS011;44794;42.652;23.318;2022-10-28T13:57:38;15.43;;;4.10;;
59008;SDS011;44794;42.652;23.318;2022-10-28T14:02:58;11.85;;;3.58;;
59008;SDS011;44794;42.652;23.318;2022-10-28T14:05:48;7.15;;;3.55;;
59008;SDS011;44794;42.652;23.318;2022-10-28T14:08:33;10.98;;;3.80;;
59008;SDS011;44794;42.652;23.318;2022-10-28T14:13:36;10.45;;;4.47;;
59008;SDS011;44794;42.652;23.318;2022-10-28T14:18:52;9.40;;;4.72;;
59008;SDS011;44794;42.652;23.318;2022-10-28T14:21:24;9.90;;;5.03;;
59008;SDS011;44794;42.652;23.318;2022-10-28T14:40:53;21.88;;;6.78;;
59008;SDS011;44794;42.652;23.318;2022-10-28T14:43:34;16.80;;;6.13;;
59008;SDS011;44794;42.652;23.318;2022-10-28T14:46:21;20.52;;;5.72;;
59008;SDS011;44794;42.652;23.318;2022-10-28T14:48:53;24.40;;;6.28;;
59008;SDS011;44794;42.652;23.318;2022-10-28T14:51:26;20.25;;;6.78;;
59008;SDS011;44794;42.652;23.318;2022-10-28T14:53:55;13.02;;;6.60;;
59008;SDS011;44794;42.652;23.318;2022-10-28T14:56:24;20.52;;;6.93;;
59008;SDS011;44794;42.652;23.318;2022-10-28T14:58:55;18.65;;;8.15;;
59008;SDS011;44794;42.652;23.318;2022-10-28T15:01:57;24.70;;;7.22;;
59008;SDS011;44794;42.652;23.318;2022-10-28T15:04:26;21.27;;;7.13;;
59008;SDS011;44794;42.652;23.318;2022-10-28T15:06:53;23.98;;;6.72;;
59008;SDS011;44794;42.652;23.318;2022-10-28T15:09:29;20.00;;;7.38;;
59008;SDS011;44794;42.652;23.318;2022-10-28T15:14:37;21.65;;;9.07;;
59008;SDS011;44794;42.652;23.318;2022-10-28T15:17:16;31.00;;;8.85;;
59008;SDS011;44794;42.652;23.318;2022-10-28T15:19:45;23.38;;;7.57;;
59008;SDS011;44794;42.652;23.318;2022-10-28T15:22:17;25.00;;;8.05;;
59008;SDS011;44794;42.652;23.318;2022-10-28T15:24:57;23.83;;;8.65;;
59008;SDS011;44794;42.652;23.318;2022-10-28T15:29:58;23.08;;;8.80;;
59008;SDS011;44794;42.652;23.318;2022-10-28T15:32:25;18.92;;;8.20;;
59008;SDS011;44794;42.652;23.318;2022-10-28T15:34:55;18.63;;;8.43;;
59008;SDS011;44794;42.652;23.318;2022-10-28T15:37:25;24.50;;;9.00;;
59008;SDS011;44794;42.652;23.318;2022-10-28T15:40:11;18.08;;;8.55;;
59008;SDS011;44794;42.652;23.318;2022-10-28T15:43:04;25.77;;;9.70;;
59008;SDS011;44794;42.652;23.318;2022-10-28T15:45:31;18.20;;;8.70;;
59008;SDS011;44794;42.652;23.318;2022-10-28T15:47:59;24.17;;;8.52;;
59008;SDS011;44794;42.652;23.318;2022-10-28T15:50:27;21.92;;;8.57;;
59008;SDS011;44794;42.652;23.318;2022-10-28T15:55:34;25.38;;;8.43;;
59008;SDS011;44794;42.652;23.318;2022-10-28T15:58:01;17.23;;;8.38;;
59008;SDS011;44794;42.652;23.318;2022-10-28T16:00:51;13.55;;;6.75;;
59008;SDS011;44794;42.652;23.318;2022-10-28T16:05:51;13.75;;;6.97;;
59008;SDS011;44794;42.652;23.318;2022-10-28T16:08:22;20.23;;;9.43;;
59008;SDS011;44794;42.652;23.318;2022-10-28T16:10:51;15.70;;;8.02;;
59008;SDS011;44794;42.652;23.318;2022-10-28T16:13:26;14.55;;;7.78;;
59008;SDS011;44794;42.652;23.318;2022-10-28T16:16:03;12.57;;;7.35;;
59008;SDS011;44794;42.652;23.318;2022-10-28T16:18:45;18.45;;;7.20;;
59008;SDS011;44794;42.652;23.318;2022-10-28T16:21:19;17.52;;;6.78;;
59008;SDS011;44794;42.652;23.318;2022-10-28T16:23:48;18.55;;;6.97;;
59008;SDS011;44794;42.652;23.318;2022-10-28T16:26:22;12.77;;;7.35;;
59008;SDS011;44794;42.652;23.318;2022-10-28T16:28:51;15.45;;;8.18;;
59008;SDS011;44794;42.652;23.318;2022-10-28T16:31:17;20.70;;;10.63;;
59008;SDS011;44794;42.652;23.318;2022-10-28T16:33:44;26.10;;;11.68;;
59008;SDS011;44794;42.652;23.318;2022-10-28T16:36:10;31.42;;;14.68;;
59008;SDS011;44794;42.652;23.318;2022-10-28T16:38:36;37.65;;;15.70;;
59008;SDS011;44794;42.652;23.318;2022-10-28T16:41:02;27.52;;;15.38;;
59008;SDS011;44794;42.652;23.318;2022-10-28T16:43:32;27.63;;;14.20;;
59008;SDS011;44794;42.652;23.318;2022-10-28T16:45:59;24.13;;;12.70;;
59008;SDS011;44794;42.652;23.318;2022-10-28T16:48:28;23.40;;;11.43;;
59008;SDS011;44794;42.652;23.318;2022-10-28T16:50:56;23.65;;;11.50;;
59008;SDS011;44794;42.652;23.318;2022-10-28T16:53:26;25.27;;;10.77;;
59008;SDS011;44794;42.652;23.318;2022-10-28T16:55:52;21.05;;;10.25;;
59008;SDS011;44794;42.652;23.318;2022-10-28T16:58:23;19.75;;;10.00;;
59008;SDS011;44794;42.652;23.318;2022-10-28T17:00:50;21.65;;;9.65;;
59008;SDS011;44794;42.652;23.318;2022-10-28T17:03:16;21.85;;;11.43;;
59008;SDS011;44794;42.652;23.318;2022-10-28T17:05:41;26.17;;;12.50;;
59008;SDS011;44794;42.652;23.318;2022-10-28T17:08:08;26.92;;;10.98;;
59008;SDS011;44794;42.652;23.318;2022-10-28T17:10:37;21.15;;;11.63;;
59008;SDS011;44794;42.652;23.318;2022-10-28T17:13:10;27.40;;;13.20;;
59008;SDS011;44794;42.652;23.318;2022-10-28T17:15:37;29.92;;;12.07;;
59008;SDS011;44794;42.652;23.318;2022-10-28T17:18:02;24.23;;;11.90;;
59008;SDS011;44794;42.652;23.318;2022-10-28T17:20:28;28.65;;;12.52;;
59008;SDS011;44794;42.652;23.318;2022-10-28T17:22:53;25.60;;;11.50;;
59008;SDS011;44794;42.652;23.318;2022-10-28T17:25:19;20.38;;;10.43;;
59008;SDS011;44794;42.652;23.318;2022-10-28T17:27:44;27.52;;;11.75;;
59008;SDS011;44794;42.652;23.318;2022-10-28T17:30:16;23.13;;;11.15;;
59008;SDS011;44794;42.652;23.318;2022-10-28T17:32:42;19.48;;;10.15;;
59008;SDS011;44794;42.652;23.318;2022-10-28T17:35:08;19.35;;;9.40;;
59008;SDS011;44794;42.652;23.318;2022-10-28T17:37:34;19.67;;;6.97;;
59008;SDS011;44794;42.652;23.318;2022-10-28T17:40:00;12.90;;;7.10;;
59008;SDS011;44794;42.652;23.318;2022-10-28T17:42:26;22.55;;;10.00;;
59008;SDS011;44794;42.652;23.318;2022-10-28T17:44:52;27.33;;;10.68;;
59008;SDS011;44794;42.652;23.318;2022-10-28T17:47:17;24.27;;;10.75;;
59008;SDS011;44794;42.652;23.318;2022-10-28T17:49:43;26.08;;;11.35;;
59008;SDS011;44794;42.652;23.318;2022-10-28T17:52:09;24.85;;;10.07;;
59008;SDS011;44794;42.652;23.318;2022-10-28T17:54:34;22.42;;;9.98;;
59008;SDS011;44794;42.652;23.318;2022-10-28T17:56:59;21.77;;;9.02;;
59008;SDS011;44794;42.652;23.318;2022-10-28T17:59:25;18.25;;;8.93;;
59008;SDS011;44794;42.652;23.318;2022-10-28T18:01:51;22.55;;;8.07;;
59008;SDS011;44794;42.652;23.318;2022-10-28T18:04:16;17.90;;;9.13;;
59008;SDS011;44794;42.652;23.318;2022-10-28T18:06:43;19.23;;;8.35;;
59008;SDS011;44794;42.652;23.318;2022-10-28T18:09:09;17.70;;;8.30;;
59008;SDS011;44794;42.652;23.318;2022-10-28T18:11:35;16.77;;;8.80;;
59008;SDS011;44794;42.652;23.318;2022-10-28T18:14:02;15.52;;;8.30;;
59008;SDS011;44794;42.652;23.318;2022-10-28T18:16:28;17.17;;;10.20;;
59008;SDS011;44794;42.652;23.318;2022-10-28T18:18:54;17.08;;;10.13;;
59008;SDS011;44794;42.652;23.318;2022-10-28T18:21:21;21.80;;;8.13;;
59008;SDS011;44794;42.652;23.318;2022-10-28T18:23:51;19.20;;;9.50;;
59008;SDS011;44794;42.652;23.318;2022-10-28T18:26:18;15.25;;;8.43;;
59008;SDS011;44794;42.652;23.318;2022-10-28T18:28:44;17.85;;;9.80;;
59008;SDS011;44794;42.652;23.318;2022-10-28T18:31:13;20.10;;;7.47;;
59008;SDS011;44794;42.652;23.318;2022-10-28T18:33:40;22.42;;;8.93;;
59008;SDS011;44794;42.652;23.318;2022-10-28T18:36:09;19.55;;;10.57;;
59008;SDS011;44794;42.652;23.318;2022-10-28T18:38:36;26.10;;;14.68;;
59008;SDS011;44794;42.652;23.318;2022-10-28T18:41:01;21.10;;;12.07;;
59008;SDS011;44794;42.652;23.318;2022-10-28T18:43:27;21.25;;;12.07;;
59008;SDS011;44794;42.652;23.318;2022-10-28T18:45:53;19.13;;;10.40;;
59008;SDS011;44794;42.652;23.318;2022-10-28T18:48:23;24.92;;;10.45;;
59008;SDS011;44794;42.652;23.318;2022-10-28T18:50:55;22.75;;;11.23;;
59008;SDS011;44794;42.652;23.318;2022-10-28T18:53:22;20.35;;;9.32;;
59008;SDS011;44794;42.652;23.318;2022-10-28T18:55:47;18.48;;;8.30;;